METAR de aeropuertos de Murcia y cercanos

 

LEAL - Alicante
Actualización: 27/05/2018 09:30
Mostly Cloudy
Mostly Cloudy
 Viento del SO
Viento: SO 9 km/h
Temperatura: 20°C
Rocío: 16°C
Humedad: 78%
Barómetro: 1013 hPa
Nubosidad: Mostly Cloudy
Visibilidad: 9 km
Cloud details: Mostly Cloudy 671 m
2018/05/27 07:30 LEAL 270730Z 22005KT 170V260 9000 BKN022 20/16 Q1013 NOSIG
LEAB - Albacete
Actualización: 27/05/2018 09:00
Despejado
Despejado
 Viento del varies
Viento: varies 4 km/h
Temperatura: 14°C
Rocío: 11°C
Humedad: 82%
Barómetro: 1015 hPa
Resumen: Despejado
Visibilidad: greater than 10 km
2018/05/27 07:00 LEAB 270700Z VRB02KT CAVOK 14/11 Q1015 NOSIG
LEAM - Almería
Actualización: 27/05/2018 09:30
Mostly Cloudy
Mostly Cloudy
 Viento del SO
Viento: SO 6 km/h
Temperatura: 19°C
Rocío: 16°C
Humedad: 83%
Barómetro: 1014 hPa
Nubosidad: Mostly Cloudy
Visibilidad: 10 km
Cloud details: Few Clouds 305 m
Mostly Cloudy 2743 m
2018/05/27 07:30 LEAM 270730Z 23003KT 170V270 9999 FEW010 BKN090 19/16 Q1014
 
LERI - Murcia/Alcantarilla
Actualización: 27/05/2018 09:00
Despejado
Despejado
 Viento del varies
Viento: varies 4 km/h
Temperatura: 19°C
Rocío: 14°C
Humedad: 73%
Barómetro: 1013 hPa
Resumen: Despejado
Visibilidad: greater than 10 km
2018/05/27 07:00 LERI 270700Z VRB02KT CAVOK 19/14 Q1013 NOSIG
LELC - Murcia/San Javier
Actualización: 27/05/2018 09:00
Few Clouds
Few Clouds
 Viento del O
Viento: O 6 km/h
Temperatura: 20°C
Rocío: 16°C
Humedad: 78%
Barómetro: 1014 hPa
Nubosidad: Few Clouds
Visibilidad: 10 km
Cloud details: Few Clouds 549 m
2018/05/27 07:00 LELC 270700Z 26003KT 170V330 9999 FEW018 20/16 Q1014 NOSIG

La estación de MeteoMurcia.com, publica sus datos en los siguientes proyectos:

Meteoclimatic www.awekas.at

W3Counter
Web Analytics